sensor_id;sensor_type;location;lat;lon;timestamp;pressure;altitude;pressure_sealevel;temperature;humidity
67842;BME280;54642;59.126;37.876;2023-07-29T00:01:18;99045.38;;;16.62;77.48
67842;BME280;54642;59.126;37.876;2023-07-29T00:03:44;99040.56;;;16.53;77.33
67842;BME280;54642;59.126;37.876;2023-07-29T00:06:10;99057.69;;;16.60;77.36
67842;BME280;54642;59.126;37.876;2023-07-29T00:08:38;99057.25;;;16.50;77.28
67842;BME280;54642;59.126;37.876;2023-07-29T00:11:04;99047.84;;;16.46;77.59
67842;BME280;54642;59.126;37.876;2023-07-29T00:13:30;99068.47;;;16.52;77.70
67842;BME280;54642;59.126;37.876;2023-07-29T00:15:56;99056.75;;;16.42;77.54
67842;BME280;54642;59.126;37.876;2023-07-29T00:18:22;99076.31;;;16.52;77.94
67842;BME280;54642;59.126;37.876;2023-07-29T00:20:49;99066.50;;;16.38;77.58
67842;BME280;54642;59.126;37.876;2023-07-29T00:23:17;99079.16;;;16.48;77.69
67842;BME280;54642;59.126;37.876;2023-07-29T00:25:45;99073.94;;;16.48;77.59
67842;BME280;54642;59.126;37.876;2023-07-29T00:28:12;99069.84;;;16.42;77.70
67842;BME280;54642;59.126;37.876;2023-07-29T00:30:38;99083.44;;;16.49;77.73
67842;BME280;54642;59.126;37.876;2023-07-29T00:33:04;99085.09;;;16.51;77.68
67842;BME280;54642;59.126;37.876;2023-07-29T00:35:30;99093.00;;;16.50;77.94
67842;BME280;54642;59.126;37.876;2023-07-29T00:37:56;99070.88;;;16.38;77.97
67842;BME280;54642;59.126;37.876;2023-07-29T00:40:22;99080.06;;;16.47;78.23
67842;BME280;54642;59.126;37.876;2023-07-29T00:42:49;99076.66;;;16.45;77.98
67842;BME280;54642;59.126;37.876;2023-07-29T00:45:16;99066.44;;;16.40;78.05
67842;BME280;54642;59.126;37.876;2023-07-29T00:47:42;99075.78;;;16.46;78.03
67842;BME280;54642;59.126;37.876;2023-07-29T00:50:13;99068.91;;;16.43;78.05
67842;BME280;54642;59.126;37.876;2023-07-29T00:52:40;99080.94;;;16.47;78.59
67842;BME280;54642;59.126;37.876;2023-07-29T00:55:06;99073.41;;;16.39;78.24
67842;BME280;54642;59.126;37.876;2023-07-29T00:57:33;99075.19;;;16.39;78.12
67842;BME280;54642;59.126;37.876;2023-07-29T01:00:00;99089.69;;;16.46;78.50
67842;BME280;54642;59.126;37.876;2023-07-29T01:02:26;99066.56;;;16.37;78.31
67842;BME280;54642;59.126;37.876;2023-07-29T01:04:57;99093.19;;;16.45;78.30
67842;BME280;54642;59.126;37.876;2023-07-29T01:07:36;99091.59;;;16.43;78.21
67842;BME280;54642;59.126;37.876;2023-07-29T01:10:11;99091.59;;;16.43;78.25
67842;BME280;54642;59.126;37.876;2023-07-29T01:13:10;99057.25;;;16.31;78.03
67842;BME280;54642;59.126;37.876;2023-07-29T01:15:46;99075.06;;;16.42;78.58
67842;BME280;54642;59.126;37.876;2023-07-29T01:18:26;99083.75;;;16.43;78.11
67842;BME280;54642;59.126;37.876;2023-07-29T01:20:59;99071.50;;;16.43;78.58
67842;BME280;54642;59.126;37.876;2023-07-29T01:23:30;99081.56;;;16.52;78.31
67842;BME280;54642;59.126;37.876;2023-07-29T01:25:57;99083.38;;;16.50;78.13
67842;BME280;54642;59.126;37.876;2023-07-29T01:28:24;99090.97;;;16.56;77.99
67842;BME280;54642;59.126;37.876;2023-07-29T01:33:55;99084.75;;;16.59;78.01
67842;BME280;54642;59.126;37.876;2023-07-29T01:36:27;99092.72;;;16.56;77.88
67842;BME280;54642;59.126;37.876;2023-07-29T01:38:54;99090.19;;;16.54;78.09
67842;BME280;54642;59.126;37.876;2023-07-29T01:41:24;99094.56;;;16.54;78.00
67842;BME280;54642;59.126;37.876;2023-07-29T01:43:50;99084.53;;;16.45;77.98
67842;BME280;54642;59.126;37.876;2023-07-29T01:46:17;99093.13;;;16.47;77.99
67842;BME280;54642;59.126;37.876;2023-07-29T01:48:43;99088.25;;;16.39;77.95
67842;BME280;54642;59.126;37.876;2023-07-29T01:51:12;99082.25;;;16.37;77.88
67842;BME280;54642;59.126;37.876;2023-07-29T01:53:39;99081.47;;;16.35;77.84
67842;BME280;54642;59.126;37.876;2023-07-29T01:56:04;99075.53;;;16.31;77.69
67842;BME280;54642;59.126;37.876;2023-07-29T01:58:31;99092.38;;;16.45;77.81
67842;BME280;54642;59.126;37.876;2023-07-29T02:00:57;99098.53;;;16.44;77.97
67842;BME280;54642;59.126;37.876;2023-07-29T02:03:23;99092.59;;;16.40;77.82
67842;BME280;54642;59.126;37.876;2023-07-29T02:05:49;99080.75;;;16.31;77.69
67842;BME280;54642;59.126;37.876;2023-07-29T02:08:14;99086.78;;;16.33;77.50
67842;BME280;54642;59.126;37.876;2023-07-29T02:10:40;99106.50;;;16.41;77.79
67842;BME280;54642;59.126;37.876;2023-07-29T02:13:08;99100.69;;;16.34;77.43
67842;BME280;54642;59.126;37.876;2023-07-29T02:15:34;99094.56;;;16.35;77.51
67842;BME280;54642;59.126;37.876;2023-07-29T02:18:00;99089.38;;;16.33;77.70
67842;BME280;54642;59.126;37.876;2023-07-29T02:20:27;99074.19;;;16.23;77.71
67842;BME280;54642;59.126;37.876;2023-07-29T02:22:53;99089.38;;;16.33;77.78
67842;BME280;54642;59.126;37.876;2023-07-29T02:25:19;99074.13;;;16.24;77.98
67842;BME280;54642;59.126;37.876;2023-07-29T02:27:45;99091.94;;;16.35;77.95
67842;BME280;54642;59.126;37.876;2023-07-29T02:30:11;99093.69;;;16.34;77.51
67842;BME280;54642;59.126;37.876;2023-07-29T02:32:38;99086.91;;;16.30;78.01
67842;BME280;54642;59.126;37.876;2023-07-29T02:35:04;99069.72;;;16.25;77.91
67842;BME280;54642;59.126;37.876;2023-07-29T02:37:30;99084.94;;;16.35;78.19
67842;BME280;54642;59.126;37.876;2023-07-29T02:39:56;99092.78;;;16.35;78.06
67842;BME280;54642;59.126;37.876;2023-07-29T02:42:22;99099.00;;;16.33;77.62
67842;BME280;54642;59.126;37.876;2023-07-29T02:44:48;99107.69;;;16.33;77.89
67842;BME280;54642;59.126;37.876;2023-07-29T02:47:14;99105.84;;;16.35;77.99
67842;BME280;54642;59.126;37.876;2023-07-29T02:49:39;99092.41;;;16.24;77.82
67842;BME280;54642;59.126;37.876;2023-07-29T02:52:05;99111.16;;;16.34;77.69
67842;BME280;54642;59.126;37.876;2023-07-29T02:54:31;99101.09;;;16.25;78.03
67842;BME280;54642;59.126;37.876;2023-07-29T02:56:57;99114.75;;;16.31;77.90
67842;BME280;54642;59.126;37.876;2023-07-29T02:59:23;99127.75;;;16.33;77.76
67842;BME280;54642;59.126;37.876;2023-07-29T03:01:50;99142.19;;;16.42;77.96
67842;BME280;54642;59.126;37.876;2023-07-29T03:04:16;99133.44;;;16.43;77.89
67842;BME280;54642;59.126;37.876;2023-07-29T03:06:41;99140.16;;;16.48;78.00
67842;BME280;54642;59.126;37.876;2023-07-29T03:09:08;99148.16;;;16.64;77.96
67842;BME280;54642;59.126;37.876;2023-07-29T03:11:34;99148.47;;;16.77;77.79
67842;BME280;54642;59.126;37.876;2023-07-29T03:14:00;99143.47;;;16.72;77.66
67842;BME280;54642;59.126;37.876;2023-07-29T03:16:28;99150.88;;;16.82;77.59
67842;BME280;54642;59.126;37.876;2023-07-29T03:18:56;99154.31;;;16.84;77.44
67842;BME280;54642;59.126;37.876;2023-07-29T03:21:23;99142.53;;;16.73;77.27
67842;BME280;54642;59.126;37.876;2023-07-29T03:23:49;99155.53;;;16.75;77.29
67842;BME280;54642;59.126;37.876;2023-07-29T03:26:15;99142.66;;;16.70;77.15
67842;BME280;54642;59.126;37.876;2023-07-29T03:28:42;99120.47;;;16.60;77.22
67842;BME280;54642;59.126;37.876;2023-07-29T03:31:08;99139.13;;;16.71;77.24
67842;BME280;54642;59.126;37.876;2023-07-29T03:33:34;99122.25;;;16.78;77.87
67842;BME280;54642;59.126;37.876;2023-07-29T03:36:00;99110.75;;;17.02;77.64
67842;BME280;54642;59.126;37.876;2023-07-29T03:38:26;99112.41;;;17.22;77.54
67842;BME280;54642;59.126;37.876;2023-07-29T03:40:53;99115.78;;;17.43;77.61
67842;BME280;54642;59.126;37.876;2023-07-29T03:43:19;99087.19;;;17.38;76.92
67842;BME280;54642;59.126;37.876;2023-07-29T03:45:45;99116.34;;;17.49;76.87
67842;BME280;54642;59.126;37.876;2023-07-29T03:48:11;99124.84;;;17.55;76.93
67842;BME280;54642;59.126;37.876;2023-07-29T03:50:37;99114.78;;;17.45;76.46
67842;BME280;54642;59.126;37.876;2023-07-29T03:53:04;99130.59;;;17.44;75.81
67842;BME280;54642;59.126;37.876;2023-07-29T03:55:31;99144.53;;;17.44;76.69
67842;BME280;54642;59.126;37.876;2023-07-29T03:57:57;99136.19;;;17.36;76.67
67842;BME280;54642;59.126;37.876;2023-07-29T04:00:24;99135.91;;;17.42;76.68
67842;BME280;54642;59.126;37.876;2023-07-29T04:02:50;99143.53;;;17.47;76.28
67842;BME280;54642;59.126;37.876;2023-07-29T04:05:16;99137.75;;;17.40;76.25
67842;BME280;54642;59.126;37.876;2023-07-29T04:07:42;99128.13;;;17.22;76.45
67842;BME280;54642;59.126;37.876;2023-07-29T04:10:09;99146.31;;;17.25;76.21
67842;BME280;54642;59.126;37.876;2023-07-29T04:12:35;99167.03;;;17.29;76.71
67842;BME280;54642;59.126;37.876;2023-07-29T04:15:02;99149.91;;;17.22;76.72
67842;BME280;54642;59.126;37.876;2023-07-29T04:17:29;99171.50;;;17.27;76.79
67842;BME280;54642;59.126;37.876;2023-07-29T04:19:56;99162.03;;;17.25;76.63
67842;BME280;54642;59.126;37.876;2023-07-29T04:22:27;99160.31;;;17.24;76.47
67842;BME280;54642;59.126;37.876;2023-07-29T04:24:53;99154.88;;;17.28;76.35
67842;BME280;54642;59.126;37.876;2023-07-29T04:27:19;99132.38;;;17.24;76.27
67842;BME280;54642;59.126;37.876;2023-07-29T04:29:45;99148.28;;;17.39;75.97
67842;BME280;54642;59.126;37.876;2023-07-29T04:32:11;99136.03;;;17.39;76.21
67842;BME280;54642;59.126;37.876;2023-07-29T04:34:36;99151.09;;;17.53;75.85
67842;BME280;54642;59.126;37.876;2023-07-29T04:37:02;99157.75;;;17.60;75.70
67842;BME280;54642;59.126;37.876;2023-07-29T04:39:28;99149.88;;;17.60;75.48
67842;BME280;54642;59.126;37.876;2023-07-29T04:41:54;99127.28;;;17.58;75.70
67842;BME280;54642;59.126;37.876;2023-07-29T04:44:20;99125.22;;;17.64;75.11
67842;BME280;54642;59.126;37.876;2023-07-29T04:46:46;99125.00;;;17.69;75.36
67842;BME280;54642;59.126;37.876;2023-07-29T04:49:11;99121.25;;;17.75;75.37
67842;BME280;54642;59.126;37.876;2023-07-29T04:51:37;99123.22;;;17.88;75.09
67842;BME280;54642;59.126;37.876;2023-07-29T04:54:03;99098.34;;;17.78;74.50
67842;BME280;54642;59.126;37.876;2023-07-29T04:56:30;99132.28;;;17.99;74.46
67842;BME280;54642;59.126;37.876;2023-07-29T04:58:55;99113.88;;;18.00;74.49
67842;BME280;54642;59.126;37.876;2023-07-29T05:01:21;99115.78;;;18.14;74.17
67842;BME280;54642;59.126;37.876;2023-07-29T05:03:48;99109.03;;;18.26;74.11
67842;BME280;54642;59.126;37.876;2023-07-29T05:06:17;99114.44;;;18.40;73.47
67842;BME280;54642;59.126;37.876;2023-07-29T05:08:43;99120.88;;;18.51;73.46
67842;BME280;54642;59.126;37.876;2023-07-29T05:11:09;99128.13;;;18.63;73.06
67842;BME280;54642;59.126;37.876;2023-07-29T05:13:34;99119.59;;;18.75;73.37
67842;BME280;54642;59.126;37.876;2023-07-29T05:16:00;99101.06;;;18.78;73.31
67842;BME280;54642;59.126;37.876;2023-07-29T05:18:26;99109.06;;;18.93;72.59
67842;BME280;54642;59.126;37.876;2023-07-29T05:20:52;99099.47;;;18.92;72.66
67842;BME280;54642;59.126;37.876;2023-07-29T05:23:18;99108.91;;;18.96;72.39
67842;BME280;54642;59.126;37.876;2023-07-29T05:25:44;99104.50;;;18.96;72.13
67842;BME280;54642;59.126;37.876;2023-07-29T05:28:10;99095.25;;;18.89;71.87
67842;BME280;54642;59.126;37.876;2023-07-29T05:30:36;99103.06;;;18.91;72.82
67842;BME280;54642;59.126;37.876;2023-07-29T05:33:08;99095.25;;;18.89;72.30
67842;BME280;54642;59.126;37.876;2023-07-29T05:35:34;99097.56;;;18.78;72.52
67842;BME280;54642;59.126;37.876;2023-07-29T05:38:00;99092.81;;;18.68;72.70
67842;BME280;54642;59.126;37.876;2023-07-29T05:40:26;99097.72;;;18.59;72.44
67842;BME280;54642;59.126;37.876;2023-07-29T05:42:52;99098.50;;;18.61;72.94
67842;BME280;54642;59.126;37.876;2023-07-29T05:45:18;99103.97;;;18.56;73.01
67842;BME280;54642;59.126;37.876;2023-07-29T05:47:43;99084.56;;;18.43;72.98
67842;BME280;54642;59.126;37.876;2023-07-29T05:50:17;99093.28;;;18.43;72.85
67842;BME280;54642;59.126;37.876;2023-07-29T05:52:43;99084.31;;;18.32;73.06
67842;BME280;54642;59.126;37.876;2023-07-29T05:55:09;99067.19;;;18.24;73.65
67842;BME280;54642;59.126;37.876;2023-07-29T05:57:35;99086.59;;;18.38;73.74
67842;BME280;54642;59.126;37.876;2023-07-29T06:00:03;99078.56;;;18.41;73.85
67842;BME280;54642;59.126;37.876;2023-07-29T06:02:39;99084.56;;;18.43;73.73
67842;BME280;54642;59.126;37.876;2023-07-29T06:05:08;99088.81;;;18.45;73.86
67842;BME280;54642;59.126;37.876;2023-07-29T06:07:35;99102.59;;;18.49;74.26
67842;BME280;54642;59.126;37.876;2023-07-29T06:10:01;99083.31;;;18.50;74.15
67842;BME280;54642;59.126;37.876;2023-07-29T06:12:26;99082.63;;;18.46;73.76
67842;BME280;54642;59.126;37.876;2023-07-29T06:14:52;99085.88;;;18.52;74.04
67842;BME280;54642;59.126;37.876;2023-07-29T06:17:18;99082.47;;;18.50;73.61
67842;BME280;54642;59.126;37.876;2023-07-29T06:19:44;99081.47;;;18.52;73.89
67842;BME280;54642;59.126;37.876;2023-07-29T06:22:10;99072.91;;;18.48;73.87
67842;BME280;54642;59.126;37.876;2023-07-29T06:24:36;99059.25;;;18.42;74.06
67842;BME280;54642;59.126;37.876;2023-07-29T06:27:02;99080.47;;;18.55;74.05
67842;BME280;54642;59.126;37.876;2023-07-29T06:29:28;99075.72;;;18.61;74.52
67842;BME280;54642;59.126;37.876;2023-07-29T06:31:54;99073.69;;;18.66;73.40
67842;BME280;54642;59.126;37.876;2023-07-29T06:34:20;99074.81;;;18.62;72.79
67842;BME280;54642;59.126;37.876;2023-07-29T06:36:46;99061.31;;;18.53;73.46
67842;BME280;54642;59.126;37.876;2023-07-29T06:39:12;99084.72;;;18.73;73.22
67842;BME280;54642;59.126;37.876;2023-07-29T06:41:38;99082.00;;;18.75;72.67
67842;BME280;54642;59.126;37.876;2023-07-29T06:44:04;99082.16;;;18.72;71.95
67842;BME280;54642;59.126;37.876;2023-07-29T06:46:30;99053.97;;;18.59;72.07
67842;BME280;54642;59.126;37.876;2023-07-29T06:48:56;99077.38;;;18.80;73.05
67842;BME280;54642;59.126;37.876;2023-07-29T06:51:21;99069.94;;;19.04;72.73
67842;BME280;54642;59.126;37.876;2023-07-29T06:53:47;99081.78;;;19.27;71.62
67842;BME280;54642;59.126;37.876;2023-07-29T06:56:13;99072.72;;;19.17;72.33
67842;BME280;54642;59.126;37.876;2023-07-29T06:58:39;99072.63;;;19.18;71.75
67842;BME280;54642;59.126;37.876;2023-07-29T07:01:05;99061.44;;;19.15;71.44
67842;BME280;54642;59.126;37.876;2023-07-29T07:03:31;99058.22;;;19.10;71.38
67842;BME280;54642;59.126;37.876;2023-07-29T07:05:56;99084.75;;;19.21;70.90
67842;BME280;54642;59.126;37.876;2023-07-29T07:08:22;99087.13;;;19.10;70.34
67842;BME280;54642;59.126;37.876;2023-07-29T07:10:48;99080.50;;;19.02;70.13
67842;BME280;54642;59.126;37.876;2023-07-29T07:13:14;99096.09;;;19.05;69.95
67842;BME280;54642;59.126;37.876;2023-07-29T07:15:40;99092.56;;;19.07;70.04
67842;BME280;54642;59.126;37.876;2023-07-29T07:18:06;99097.47;;;19.13;71.27
67842;BME280;54642;59.126;37.876;2023-07-29T07:20:32;99076.88;;;19.05;70.80
67842;BME280;54642;59.126;37.876;2023-07-29T07:22:58;99110.84;;;19.24;70.55
67842;BME280;54642;59.126;37.876;2023-07-29T07:25:24;99104.16;;;19.18;69.92
67842;BME280;54642;59.126;37.876;2023-07-29T07:27:49;99108.28;;;19.22;70.46
67842;BME280;54642;59.126;37.876;2023-07-29T07:30:15;99126.88;;;19.35;70.06
67842;BME280;54642;59.126;37.876;2023-07-29T07:32:41;99122.69;;;19.31;69.99
67842;BME280;54642;59.126;37.876;2023-07-29T07:35:07;99126.06;;;19.33;69.84
67842;BME280;54642;59.126;37.876;2023-07-29T07:37:33;99134.38;;;19.41;69.88
67842;BME280;54642;59.126;37.876;2023-07-29T07:39:59;99125.81;;;19.38;69.57
67842;BME280;54642;59.126;37.876;2023-07-29T07:42:25;99146.41;;;19.46;68.98
67842;BME280;54642;59.126;37.876;2023-07-29T07:44:51;99151.59;;;19.47;69.00
67842;BME280;54642;59.126;37.876;2023-07-29T07:47:16;99165.41;;;19.51;68.36
67842;BME280;54642;59.126;37.876;2023-07-29T07:49:42;99156.44;;;19.39;68.28
67842;BME280;54642;59.126;37.876;2023-07-29T07:52:08;99164.19;;;19.40;67.91
67842;BME280;54642;59.126;37.876;2023-07-29T07:54:34;99170.56;;;19.36;67.74
67842;BME280;54642;59.126;37.876;2023-07-29T07:57:00;99177.63;;;19.36;67.13
67842;BME280;54642;59.126;37.876;2023-07-29T07:59:26;99157.34;;;19.38;67.72
67842;BME280;54642;59.126;37.876;2023-07-29T08:01:54;99162.38;;;19.42;66.92
67842;BME280;54642;59.126;37.876;2023-07-29T08:04:20;99138.28;;;19.34;67.45
67842;BME280;54642;59.126;37.876;2023-07-29T08:06:46;99153.00;;;19.53;66.95
67842;BME280;54642;59.126;37.876;2023-07-29T08:09:12;99132.50;;;19.43;66.71
67842;BME280;54642;59.126;37.876;2023-07-29T08:11:38;99135.41;;;19.55;66.41
67842;BME280;54642;59.126;37.876;2023-07-29T08:14:03;99135.28;;;19.56;66.61
67842;BME280;54642;59.126;37.876;2023-07-29T08:16:30;99133.53;;;19.57;66.08
67842;BME280;54642;59.126;37.876;2023-07-29T08:18:56;99116.06;;;19.56;66.60
67842;BME280;54642;59.126;37.876;2023-07-29T08:21:22;99099.28;;;19.58;66.47
67842;BME280;54642;59.126;37.876;2023-07-29T08:23:48;99100.88;;;19.61;65.95
67842;BME280;54642;59.126;37.876;2023-07-29T08:26:14;99082.25;;;19.50;65.65
67842;BME280;54642;59.126;37.876;2023-07-29T08:28:40;99078.19;;;19.44;66.09
67842;BME280;54642;59.126;37.876;2023-07-29T08:31:06;99084.44;;;19.57;66.22
67842;BME280;54642;59.126;37.876;2023-07-29T08:33:33;99077.22;;;19.61;66.39
67842;BME280;54642;59.126;37.876;2023-07-29T08:36:00;99079.69;;;19.64;67.36
67842;BME280;54642;59.126;37.876;2023-07-29T08:38:26;99066.72;;;19.61;66.92
67842;BME280;54642;59.126;37.876;2023-07-29T08:41:29;99069.84;;;19.68;67.44
67842;BME280;54642;59.126;37.876;2023-07-29T08:44:18;99063.41;;;19.57;67.65
67842;BME280;54642;59.126;37.876;2023-07-29T08:46:48;99064.63;;;19.52;67.84
67842;BME280;54642;59.126;37.876;2023-07-29T08:49:15;99068.75;;;19.56;67.78
67842;BME280;54642;59.126;37.876;2023-07-29T08:51:45;99057.66;;;19.51;67.85
67842;BME280;54642;59.126;37.876;2023-07-29T08:54:12;99049.19;;;19.46;67.40
67842;BME280;54642;59.126;37.876;2023-07-29T08:56:41;99069.34;;;19.61;66.89
67842;BME280;54642;59.126;37.876;2023-07-29T08:59:08;99048.84;;;19.52;67.30
67842;BME280;54642;59.126;37.876;2023-07-29T09:01:34;99063.00;;;19.49;67.70
67842;BME280;54642;59.126;37.876;2023-07-29T09:04:00;99081.38;;;19.49;68.00
67842;BME280;54642;59.126;37.876;2023-07-29T09:06:26;99084.97;;;19.48;67.92
67842;BME280;54642;59.126;37.876;2023-07-29T09:08:56;99075.75;;;19.41;68.14
67842;BME280;54642;59.126;37.876;2023-07-29T09:11:24;99073.53;;;19.33;67.69
67842;BME280;54642;59.126;37.876;2023-07-29T09:13:50;99088.13;;;19.39;67.40
67842;BME280;54642;59.126;37.876;2023-07-29T09:16:16;99075.16;;;19.36;67.85
67842;BME280;54642;59.126;37.876;2023-07-29T09:18:42;99068.78;;;19.40;67.63
67842;BME280;54642;59.126;37.876;2023-07-29T09:21:08;99092.16;;;19.60;67.15
67842;BME280;54642;59.126;37.876;2023-07-29T09:23:41;99080.31;;;19.53;66.81
67842;BME280;54642;59.126;37.876;2023-07-29T09:26:08;99074.72;;;19.43;66.39
67842;BME280;54642;59.126;37.876;2023-07-29T09:28:36;99096.81;;;19.55;66.02
67842;BME280;54642;59.126;37.876;2023-07-29T09:31:03;99097.81;;;19.53;65.45
67842;BME280;54642;59.126;37.876;2023-07-29T09:33:32;99084.69;;;19.53;65.26
67842;BME280;54642;59.126;37.876;2023-07-29T09:36:00;99079.13;;;19.43;65.18
67842;BME280;54642;59.126;37.876;2023-07-29T09:38:27;99085.22;;;19.43;65.15
67842;BME280;54642;59.126;37.876;2023-07-29T09:40:57;99099.13;;;19.46;65.08
67842;BME280;54642;59.126;37.876;2023-07-29T09:43:31;99091.50;;;19.41;65.01
67842;BME280;54642;59.126;37.876;2023-07-29T09:46:02;99088.47;;;19.33;64.06
67842;BME280;54642;59.126;37.876;2023-07-29T09:48:36;99097.28;;;19.32;63.73
67842;BME280;54642;59.126;37.876;2023-07-29T09:51:14;99073.00;;;19.12;64.24
67842;BME280;54642;59.126;37.876;2023-07-29T09:53:44;99091.00;;;19.18;64.04
67842;BME280;54642;59.126;37.876;2023-07-29T09:56:10;99086.78;;;19.16;65.11
67842;BME280;54642;59.126;37.876;2023-07-29T09:58:38;99111.69;;;19.24;64.46
67842;BME280;54642;59.126;37.876;2023-07-29T10:01:05;99102.72;;;19.29;64.78
67842;BME280;54642;59.126;37.876;2023-07-29T10:03:32;99096.94;;;19.22;64.67
67842;BME280;54642;59.126;37.876;2023-07-29T10:06:06;99090.25;;;19.16;64.46
67842;BME280;54642;59.126;37.876;2023-07-29T10:08:33;99102.34;;;19.19;65.36
67842;BME280;54642;59.126;37.876;2023-07-29T10:11:09;99101.59;;;19.17;65.20
67842;BME280;54642;59.126;37.876;2023-07-29T10:13:36;99102.34;;;19.19;65.45
67842;BME280;54642;59.126;37.876;2023-07-29T10:16:02;99088.31;;;19.20;65.90
67842;BME280;54642;59.126;37.876;2023-07-29T10:18:30;99113.28;;;19.27;66.34
67842;BME280;54642;59.126;37.876;2023-07-29T10:20:58;99096.94;;;19.22;66.16
67842;BME280;54642;59.126;37.876;2023-07-29T10:23:26;99109.25;;;19.21;66.83
67842;BME280;54642;59.126;37.876;2023-07-29T10:26:02;99085.16;;;19.13;67.46
67842;BME280;54642;59.126;37.876;2023-07-29T10:28:30;99092.03;;;19.32;68.09
67842;BME280;54642;59.126;37.876;2023-07-29T10:30:57;99081.09;;;19.39;68.44
67842;BME280;54642;59.126;37.876;2023-07-29T10:33:24;99071.00;;;19.48;68.37
67842;BME280;54642;59.126;37.876;2023-07-29T10:35:51;99071.28;;;19.27;67.62
67842;BME280;54642;59.126;37.876;2023-07-29T10:38:19;99069.84;;;19.05;68.26
67842;BME280;54642;59.126;37.876;2023-07-29T10:40:53;99067.66;;;18.98;68.11
67842;BME280;54642;59.126;37.876;2023-07-29T10:43:31;99062.22;;;19.01;67.33
67842;BME280;54642;59.126;37.876;2023-07-29T10:45:57;99049.44;;;18.95;67.10
67842;BME280;54642;59.126;37.876;2023-07-29T10:51:35;99068.06;;;19.06;67.33
67842;BME280;54642;59.126;37.876;2023-07-29T10:54:11;99061.06;;;19.07;68.08
67842;BME280;54642;59.126;37.876;2023-07-29T10:56:49;99042.75;;;19.21;68.56
67842;BME280;54642;59.126;37.876;2023-07-29T11:02:11;99043.50;;;19.23;67.05
67842;BME280;54642;59.126;37.876;2023-07-29T11:04:50;99038.69;;;18.99;67.13
67842;BME280;54642;59.126;37.876;2023-07-29T11:15:25;99026.13;;;18.73;66.93
67842;BME280;54642;59.126;37.876;2023-07-29T11:17:58;99061.69;;;18.78;66.60
67842;BME280;54642;59.126;37.876;2023-07-29T11:20:27;99049.91;;;18.70;66.41
67842;BME280;54642;59.126;37.876;2023-07-29T11:22:54;99063.91;;;18.86;67.10
67842;BME280;54642;59.126;37.876;2023-07-29T11:25:22;99053.22;;;18.73;66.62
67842;BME280;54642;59.126;37.876;2023-07-29T11:27:48;99062.22;;;18.85;67.06
67842;BME280;54642;59.126;37.876;2023-07-29T11:30:15;99063.91;;;19.02;67.20
67842;BME280;54642;59.126;37.876;2023-07-29T11:32:44;99071.97;;;19.15;66.75
67842;BME280;54642;59.126;37.876;2023-07-29T11:35:12;99065.53;;;19.04;67.60
67842;BME280;54642;59.126;37.876;2023-07-29T11:37:41;99083.75;;;19.08;67.54
67842;BME280;54642;59.126;37.876;2023-07-29T11:40:08;99055.97;;;19.03;67.65
67842;BME280;54642;59.126;37.876;2023-07-29T11:42:37;99080.44;;;19.04;66.88
67842;BME280;54642;59.126;37.876;2023-07-29T11:45:04;99070.47;;;18.77;66.90
67842;BME280;54642;59.126;37.876;2023-07-29T11:47:32;99087.56;;;18.68;67.36
67842;BME280;54642;59.126;37.876;2023-07-29T11:50:04;99078.78;;;18.70;66.91
67842;BME280;54642;59.126;37.876;2023-07-29T11:52:35;99073.09;;;18.61;66.58
67842;BME280;54642;59.126;37.876;2023-07-29T11:55:02;99084.72;;;18.73;66.61
67842;BME280;54642;59.126;37.876;2023-07-29T11:57:33;99097.88;;;18.89;66.94
67842;BME280;54642;59.126;37.876;2023-07-29T12:00:02;99091.53;;;18.93;66.73
67842;BME280;54642;59.126;37.876;2023-07-29T12:02:37;99072.50;;;18.72;65.91
67842;BME280;54642;59.126;37.876;2023-07-29T12:05:04;99079.78;;;18.51;66.69
67842;BME280;54642;59.126;37.876;2023-07-29T12:07:31;99080.47;;;18.55;65.53
67842;BME280;54642;59.126;37.876;2023-07-29T12:09:59;99083.59;;;18.61;66.56
67842;BME280;54642;59.126;37.876;2023-07-29T12:12:25;99073.53;;;18.70;65.28
67842;BME280;54642;59.126;37.876;2023-07-29T12:14:51;99066.41;;;18.72;65.88
67842;BME280;54642;59.126;37.876;2023-07-29T12:17:18;99073.38;;;18.73;65.40
67842;BME280;54642;59.126;37.876;2023-07-29T12:19:44;99080.16;;;18.77;64.71
67842;BME280;54642;59.126;37.876;2023-07-29T12:22:10;99082.66;;;18.62;64.85
67842;BME280;54642;59.126;37.876;2023-07-29T12:24:38;99074.34;;;18.54;64.63
67842;BME280;54642;59.126;37.876;2023-07-29T12:27:05;99083.25;;;18.52;65.46
67842;BME280;54642;59.126;37.876;2023-07-29T12:29:31;99090.63;;;18.61;65.31
67842;BME280;54642;59.126;37.876;2023-07-29T12:32:02;99091.31;;;18.64;65.44
67842;BME280;54642;59.126;37.876;2023-07-29T12:34:29;99058.44;;;18.57;66.10
67842;BME280;54642;59.126;37.876;2023-07-29T12:36:57;99034.31;;;18.51;65.48
67842;BME280;54642;59.126;37.876;2023-07-29T12:39:28;99071.66;;;18.72;65.36
67842;BME280;54642;59.126;37.876;2023-07-29T12:41:56;99067.91;;;18.60;65.80
67842;BME280;54642;59.126;37.876;2023-07-29T12:44:23;99065.91;;;18.65;65.57
67842;BME280;54642;59.126;37.876;2023-07-29T12:46:50;99043.53;;;18.58;65.76
67842;BME280;54642;59.126;37.876;2023-07-29T12:49:16;99070.56;;;18.76;64.63
67842;BME280;54642;59.126;37.876;2023-07-29T12:51:42;99061.69;;;18.62;65.17
67842;BME280;54642;59.126;37.876;2023-07-29T12:54:08;99060.34;;;18.71;65.17
67842;BME280;54642;59.126;37.876;2023-07-29T12:56:34;99058.13;;;18.79;65.11
67842;BME280;54642;59.126;37.876;2023-07-29T12:59:01;99063.75;;;18.89;65.06
67842;BME280;54642;59.126;37.876;2023-07-29T13:01:28;99064.41;;;18.77;63.54
67842;BME280;54642;59.126;37.876;2023-07-29T13:03:54;99045.78;;;18.65;64.86
67842;BME280;54642;59.126;37.876;2023-07-29T13:06:21;99051.44;;;18.74;64.22
67842;BME280;54642;59.126;37.876;2023-07-29T13:08:48;99055.84;;;18.73;64.25